createdAt,value
2023-01-17T00:02:25.178Z,39.55
2023-01-17T00:05:10.026Z,37.63
2023-01-17T00:07:54.918Z,39.47
2023-01-17T00:10:24.033Z,39.30
2023-01-17T00:12:51.901Z,42.38
2023-01-17T00:15:20.050Z,41.65
2023-01-17T00:17:47.350Z,40.22
2023-01-17T00:20:32.879Z,39.42
2023-01-17T00:23:17.621Z,40.92
2023-01-17T00:26:02.392Z,38.25
2023-01-17T00:28:29.112Z,39.72
2023-01-17T00:30:55.488Z,36.90
2023-01-17T00:33:22.400Z,37.22
2023-01-17T00:35:48.705Z,40.85
2023-01-17T00:38:16.481Z,41.15
2023-01-17T00:40:43.366Z,42.05
2023-01-17T00:43:29.624Z,42.88
2023-01-17T00:46:14.394Z,43.47
2023-01-17T00:48:59.562Z,43.80
2023-01-17T00:51:44.848Z,49.17
2023-01-17T00:54:29.748Z,43.88
2023-01-17T00:57:14.569Z,46.70
2023-01-17T00:59:59.414Z,44.15
2023-01-17T01:02:44.887Z,47.47
2023-01-17T01:05:30.405Z,45.85
2023-01-17T01:08:15.726Z,39.13
2023-01-17T01:11:00.859Z,41.38
2023-01-17T01:13:46.742Z,40.45
2023-01-17T01:16:32.224Z,43.60
2023-01-17T01:19:17.252Z,42.13
2023-01-17T01:22:02.411Z,41.90
2023-01-17T01:24:47.164Z,40.40
2023-01-17T01:27:32.524Z,43.80
2023-01-17T01:30:17.360Z,40.28
2023-01-17T01:33:02.298Z,41.55
2023-01-17T01:35:28.641Z,38.35
2023-01-17T01:37:55.164Z,32.50
2023-01-17T01:40:21.509Z,29.63
2023-01-17T01:42:52.180Z,32.15
2023-01-17T01:45:23.190Z,32.40
2023-01-17T01:47:50.178Z,34.38
2023-01-17T01:50:17.031Z,34.60
2023-01-17T01:52:44.674Z,35.63
2023-01-17T01:55:16.710Z,41.40
2023-01-17T01:57:46.870Z,35.33
2023-01-17T02:00:16.477Z,32.38
2023-01-17T02:02:44.120Z,33.13
2023-01-17T02:05:11.192Z,32.60
2023-01-17T02:08:03.719Z,32.75
2023-01-17T02:10:37.384Z,34.33
2023-01-17T02:13:04.021Z,33.45
2023-01-17T02:15:32.687Z,35.35
2023-01-17T02:18:01.861Z,35.15
2023-01-17T02:20:31.230Z,34.53
2023-01-17T02:23:00.628Z,36.38
2023-01-17T02:25:38.657Z,37.47
2023-01-17T02:28:23.777Z,34.60
2023-01-17T02:31:01.771Z,32.55
2023-01-17T02:36:04.670Z,33.53
2023-01-17T02:38:31.639Z,27.88
2023-01-17T02:41:07.647Z,28.85
2023-01-17T02:43:35.146Z,30.05
2023-01-17T02:46:01.645Z,30.15
2023-01-17T02:48:29.450Z,28.00
2023-01-17T02:50:55.791Z,28.50
2023-01-17T02:53:28.205Z,27.63
2023-01-17T02:56:13.334Z,27.20
2023-01-17T02:58:39.875Z,29.45
2023-01-17T03:01:16.218Z,21.63
2023-01-17T03:03:42.595Z,21.70
2023-01-17T03:06:21.186Z,23.83
2023-01-17T03:08:48.692Z,26.50
2023-01-17T03:11:15.269Z,22.45
2023-01-17T03:13:42.249Z,24.27
2023-01-17T03:16:12.820Z,20.92
2023-01-17T03:18:39.405Z,25.02
2023-01-17T03:21:05.851Z,26.08
2023-01-17T03:23:32.268Z,24.45
2023-01-17T03:25:58.641Z,22.48
2023-01-17T03:28:25.003Z,23.73
2023-01-17T03:30:51.471Z,24.27
2023-01-17T03:33:18.416Z,24.65
2023-01-17T03:35:45.357Z,23.15
2023-01-17T03:38:11.848Z,25.23
2023-01-17T03:40:38.198Z,24.80
2023-01-17T03:43:04.594Z,22.65
2023-01-17T03:45:30.962Z,24.02
2023-01-17T03:47:57.874Z,24.08
2023-01-17T03:50:24.315Z,24.40
2023-01-17T03:52:51.186Z,25.55
2023-01-17T03:55:17.934Z,23.73
2023-01-17T03:57:44.315Z,21.92
2023-01-17T04:00:11.207Z,24.65
2023-01-17T04:02:37.563Z,22.48
2023-01-17T04:05:04.133Z,20.80
2023-01-17T04:07:30.463Z,21.08
2023-01-17T04:09:56.946Z,21.88
2023-01-17T04:12:23.727Z,20.08
2023-01-17T04:14:50.054Z,22.00
2023-01-17T04:17:17.369Z,23.85
2023-01-17T04:19:43.938Z,21.30
2023-01-17T04:22:10.263Z,21.70
2023-01-17T04:24:36.632Z,20.00
2023-01-17T04:27:04.032Z,20.77
2023-01-17T04:29:30.522Z,19.67
2023-01-17T04:31:56.921Z,20.08
2023-01-17T04:34:23.340Z,22.27
2023-01-17T04:36:49.734Z,23.52
2023-01-17T04:39:16.129Z,23.45
2023-01-17T04:41:43.843Z,21.88
2023-01-17T04:44:10.246Z,22.25
2023-01-17T04:46:36.602Z,22.42
2023-01-17T04:49:02.931Z,21.13
2023-01-17T04:51:29.298Z,20.42
2023-01-17T04:53:55.732Z,22.58
2023-01-17T04:56:22.069Z,21.02
2023-01-17T04:58:48.431Z,22.20
2023-01-17T05:01:14.997Z,20.27
2023-01-17T05:03:41.510Z,19.38
2023-01-17T05:06:07.900Z,18.42
2023-01-17T05:08:34.287Z,18.60
2023-01-17T05:11:00.659Z,23.27
2023-01-17T05:13:27.019Z,21.92
2023-01-17T05:15:53.632Z,20.95
2023-01-17T05:18:20.343Z,19.83
2023-01-17T05:20:47.034Z,24.48
2023-01-17T05:23:13.447Z,23.17
2023-01-17T05:25:44.706Z,22.13
2023-01-17T05:28:12.160Z,22.83
2023-01-17T05:30:38.628Z,25.55
2023-01-17T05:33:05.016Z,25.08
2023-01-17T05:35:34.815Z,22.52
2023-01-17T05:38:01.399Z,20.20
2023-01-17T05:40:29.039Z,22.83
2023-01-17T05:42:56.273Z,22.65
2023-01-17T05:45:23.631Z,21.13
2023-01-17T05:47:51.013Z,23.80
2023-01-17T05:50:19.342Z,20.33
2023-01-17T05:52:53.024Z,18.77
2023-01-17T05:55:19.868Z,20.80
2023-01-17T05:57:46.523Z,21.73
2023-01-17T06:00:13.248Z,16.70
2023-01-17T06:02:40.015Z,15.77
2023-01-17T06:05:06.625Z,19.60
2023-01-17T06:07:33.129Z,21.25
2023-01-17T06:09:59.474Z,16.55
2023-01-17T06:12:26.071Z,16.67
2023-01-17T06:14:52.413Z,17.00
2023-01-17T06:17:18.820Z,17.00
2023-01-17T06:19:45.521Z,18.30
2023-01-17T06:22:11.911Z,16.00
2023-01-17T06:24:38.267Z,11.95
2023-01-17T06:27:04.600Z,16.10
2023-01-17T06:29:30.933Z,17.45
2023-01-17T06:31:57.318Z,14.95
2023-01-17T06:34:23.665Z,18.45
2023-01-17T06:36:50.010Z,13.57
2023-01-17T06:39:16.398Z,15.75
2023-01-17T06:41:43.134Z,14.27
2023-01-17T06:44:09.740Z,16.08
2023-01-17T06:46:36.260Z,15.45
2023-01-17T06:49:02.721Z,13.95
2023-01-17T06:51:29.094Z,15.10
2023-01-17T06:53:55.474Z,13.32
2023-01-17T06:56:21.906Z,12.25
2023-01-17T06:58:51.594Z,12.38
2023-01-17T07:01:18.348Z,12.68
2023-01-17T07:03:44.862Z,10.60
2023-01-17T07:06:11.428Z,11.40
2023-01-17T07:08:37.968Z,10.38
2023-01-17T07:11:05.821Z,9.98
2023-01-17T07:13:36.503Z,10.48
2023-01-17T07:16:03.708Z,9.40
2023-01-17T07:18:30.490Z,10.85
2023-01-17T07:20:56.970Z,11.15
2023-01-17T07:23:24.034Z,12.27
2023-01-17T07:25:51.039Z,8.57
2023-01-17T07:28:17.367Z,13.00
2023-01-17T07:30:44.476Z,9.13
2023-01-17T07:33:10.888Z,12.02
2023-01-17T07:35:37.368Z,9.00
2023-01-17T07:38:04.133Z,9.45
2023-01-17T07:40:31.197Z,13.68
2023-01-17T07:43:01.988Z,16.88
2023-01-17T07:45:28.360Z,22.75
2023-01-17T07:47:57.826Z,28.52
2023-01-17T07:50:24.174Z,18.52
2023-01-17T07:52:50.601Z,20.58
2023-01-17T07:55:16.960Z,16.40
2023-01-17T07:57:43.317Z,12.43
2023-01-17T08:00:10.017Z,14.35
2023-01-17T08:02:36.396Z,12.45
2023-01-17T08:05:02.789Z,12.93
2023-01-17T08:07:29.504Z,13.02
2023-01-17T08:09:55.927Z,13.50
2023-01-17T08:12:22.302Z,11.85
2023-01-17T08:14:48.665Z,13.60
2023-01-17T08:17:16.453Z,10.82
2023-01-17T08:19:43.346Z,10.68
2023-01-17T08:22:09.831Z,11.90
2023-01-17T08:24:37.474Z,12.25
2023-01-17T08:27:04.110Z,15.02
2023-01-17T08:29:30.455Z,22.13
2023-01-17T08:31:56.822Z,28.20
2023-01-17T08:34:23.188Z,17.15
2023-01-17T08:36:51.815Z,14.35
2023-01-17T08:39:18.647Z,12.10
2023-01-17T08:41:44.984Z,11.63
2023-01-17T08:44:11.566Z,11.98
2023-01-17T08:46:38.554Z,13.77
2023-01-17T08:49:05.161Z,13.73
2023-01-17T08:51:32.821Z,16.05
2023-01-17T08:53:59.138Z,11.48
2023-01-17T08:56:26.007Z,12.60
2023-01-17T08:58:52.395Z,15.15
2023-01-17T09:01:18.856Z,14.48
2023-01-17T09:03:45.670Z,11.90
2023-01-17T09:06:13.396Z,15.27
2023-01-17T09:08:40.002Z,14.02
2023-01-17T09:11:07.577Z,13.95
2023-01-17T09:13:33.977Z,16.73
2023-01-17T09:16:00.355Z,15.43
2023-01-17T09:18:27.654Z,14.75
2023-01-17T09:20:55.193Z,16.65
2023-01-17T09:23:22.375Z,18.23
2023-01-17T09:25:55.573Z,19.00
2023-01-17T09:28:21.993Z,21.30
2023-01-17T09:30:48.699Z,23.40
2023-01-17T09:33:15.537Z,24.30
2023-01-17T09:35:41.879Z,23.95
2023-01-17T09:38:08.254Z,21.73
2023-01-17T09:40:37.156Z,19.55
2023-01-17T09:43:05.457Z,22.20
2023-01-17T09:45:33.435Z,21.23
2023-01-17T09:50:35.993Z,16.88
2023-01-17T09:53:03.783Z,20.20
2023-01-17T09:55:56.362Z,18.33
2023-01-17T09:58:38.032Z,19.17
2023-01-17T10:01:14.763Z,17.10
2023-01-17T10:03:50.502Z,16.17
2023-01-17T10:06:16.842Z,19.23
2023-01-17T10:08:49.068Z,17.23
2023-01-17T10:11:18.479Z,15.32
2023-01-17T10:13:50.898Z,16.83
2023-01-17T10:16:17.305Z,15.35
2023-01-17T10:19:03.856Z,14.00
2023-01-17T10:21:40.761Z,16.73
2023-01-17T10:24:24.641Z,14.38
2023-01-17T10:26:53.395Z,12.77
2023-01-17T10:29:21.196Z,44.50
2023-01-17T10:32:14.012Z,32.50
2023-01-17T10:34:49.362Z,21.70
2023-01-17T10:37:36.420Z,28.60
2023-01-17T10:40:12.028Z,19.10
2023-01-17T10:42:44.203Z,15.52
2023-01-17T10:45:20.800Z,16.92
2023-01-17T10:47:52.470Z,23.73
2023-01-17T10:50:19.820Z,19.25
2023-01-17T10:52:53.272Z,20.17
2023-01-17T10:55:25.846Z,16.52
2023-01-17T10:57:52.921Z,16.38
2023-01-17T11:00:30.756Z,15.50
2023-01-17T11:05:25.853Z,13.85
2023-01-17T11:07:59.230Z,13.77
2023-01-17T11:10:54.042Z,12.75
2023-01-17T11:13:20.687Z,15.93
2023-01-17T11:15:51.496Z,41.38
2023-01-17T11:18:21.929Z,15.85
2023-01-17T11:20:48.612Z,10.52
2023-01-17T11:23:21.228Z,9.27
2023-01-17T11:25:50.516Z,11.80
2023-01-17T11:28:22.033Z,12.95
2023-01-17T11:30:55.955Z,13.43
2023-01-17T11:33:34.777Z,10.43
2023-01-17T11:36:01.093Z,10.68
2023-01-17T11:38:27.662Z,17.45
2023-01-17T11:41:13.991Z,84.43
2023-01-17T11:43:51.055Z,48.15
2023-01-17T11:46:18.672Z,19.35
2023-01-17T11:48:50.426Z,17.27
2023-01-17T11:51:18.913Z,56.45
2023-01-17T11:53:48.791Z,39.45
2023-01-17T11:56:19.796Z,19.67
2023-01-17T11:58:47.254Z,57.40
2023-01-17T12:01:32.365Z,48.45
2023-01-17T12:04:08.246Z,38.58
2023-01-17T12:06:51.587Z,27.92
2023-01-17T12:09:28.754Z,21.67
2023-01-17T12:12:35.100Z,16.80
2023-01-17T12:15:06.291Z,18.37
2023-01-17T12:17:51.572Z,17.10
2023-01-17T12:20:35.839Z,15.02
2023-01-17T12:23:20.514Z,14.43
2023-01-17T12:26:19.723Z,18.80
2023-01-17T12:29:04.141Z,19.60
2023-01-17T12:31:41.543Z,18.63
2023-01-17T12:34:24.315Z,13.55
2023-01-17T12:37:05.843Z,16.15
2023-01-17T12:39:40.365Z,13.75
2023-01-17T12:42:18.557Z,13.70
2023-01-17T12:44:51.591Z,12.60
2023-01-17T12:47:19.650Z,12.68
2023-01-17T12:49:50.272Z,9.20
2023-01-17T12:52:20.552Z,9.38
2023-01-17T12:54:49.607Z,8.73
2023-01-17T12:57:19.094Z,8.85
2023-01-17T12:59:54.634Z,9.57
2023-01-17T13:02:26.194Z,8.80
2023-01-17T13:05:11.585Z,8.85
2023-01-17T13:07:40.938Z,8.57
2023-01-17T13:10:07.312Z,6.55
2023-01-17T13:12:34.644Z,8.40
2023-01-17T13:15:03.012Z,8.32
2023-01-17T13:17:44.862Z,8.73
2023-01-17T13:20:37.383Z,10.73
2023-01-17T13:23:09.730Z,8.50
2023-01-17T13:25:48.638Z,9.60
2023-01-17T13:28:15.059Z,8.10
2023-01-17T13:30:44.400Z,9.35
2023-01-17T13:33:15.286Z,7.13
2023-01-17T13:35:58.161Z,6.22
2023-01-17T13:38:33.862Z,5.68
2023-01-17T13:41:19.124Z,6.97
2023-01-17T13:44:04.149Z,5.13
2023-01-17T13:46:53.568Z,6.80
2023-01-17T13:49:20.872Z,4.93
2023-01-17T13:52:13.236Z,6.45
2023-01-17T13:54:44.862Z,6.93
2023-01-17T13:57:23.531Z,9.63
2023-01-17T13:59:49.997Z,8.13
2023-01-17T14:02:31.779Z,8.93
2023-01-17T14:05:07.306Z,9.13
2023-01-17T14:07:35.739Z,9.27
2023-01-17T14:10:15.463Z,10.43
2023-01-17T14:12:41.834Z,9.88
2023-01-17T14:15:19.001Z,9.60
2023-01-17T14:17:50.877Z,11.52
2023-01-17T14:20:17.485Z,8.15
2023-01-17T14:22:48.683Z,8.38
2023-01-17T14:25:18.750Z,8.15
2023-01-17T14:27:47.160Z,6.63
2023-01-17T14:30:16.471Z,7.60
2023-01-17T14:33:08.809Z,9.35
2023-01-17T14:35:37.481Z,9.85
2023-01-17T14:38:10.376Z,9.07
2023-01-17T14:40:38.407Z,9.75
2023-01-17T14:43:11.810Z,9.18
2023-01-17T14:45:38.665Z,8.88
2023-01-17T14:48:15.581Z,9.10
2023-01-17T14:50:43.113Z,8.05
2023-01-17T14:53:12.627Z,12.38
2023-01-17T14:55:48.873Z,10.65
2023-01-17T14:58:22.845Z,13.02
2023-01-17T15:00:51.382Z,24.60
2023-01-17T15:03:17.873Z,26.30
2023-01-17T15:05:46.755Z,37.80
2023-01-17T15:08:14.288Z,28.92
2023-01-17T15:10:48.718Z,30.25
2023-01-17T15:13:19.933Z,44.92
2023-01-17T15:15:48.912Z,38.90
2023-01-17T15:18:19.673Z,41.22
2023-01-17T15:20:50.797Z,15.52
2023-01-17T15:23:19.001Z,17.08
2023-01-17T15:25:47.063Z,14.70
2023-01-17T15:28:13.766Z,17.95
2023-01-17T15:30:59.875Z,20.65
2023-01-17T15:33:26.369Z,19.17
2023-01-17T15:35:59.832Z,20.45
2023-01-17T15:38:26.397Z,18.33
2023-01-17T15:40:52.863Z,17.58
2023-01-17T15:43:20.564Z,13.27
2023-01-17T15:45:55.395Z,18.55
2023-01-17T15:48:30.732Z,17.50
2023-01-17T15:51:00.236Z,17.25
2023-01-17T15:53:32.139Z,18.15
2023-01-17T15:55:59.175Z,14.80
2023-01-17T15:58:27.668Z,13.43
2023-01-17T16:00:54.231Z,15.73
2023-01-17T16:03:22.863Z,15.35
2023-01-17T16:05:50.550Z,12.85
2023-01-17T16:08:22.865Z,15.70
2023-01-17T16:10:52.594Z,14.80
2023-01-17T16:13:18.914Z,20.98
2023-01-17T16:15:45.310Z,16.77
2023-01-17T16:18:11.811Z,17.33
2023-01-17T16:20:41.413Z,14.05
2023-01-17T16:23:09.329Z,14.23
2023-01-17T16:25:35.849Z,22.85
2023-01-17T16:28:03.364Z,22.88
2023-01-17T16:30:30.203Z,24.05
2023-01-17T16:32:59.515Z,23.30
2023-01-17T16:35:27.684Z,30.45
2023-01-17T16:37:55.059Z,24.42
2023-01-17T16:40:23.290Z,22.65
2023-01-17T16:42:50.061Z,25.65
2023-01-17T16:45:16.921Z,40.58
2023-01-17T16:47:44.225Z,50.40
2023-01-17T16:50:11.451Z,41.97
2023-01-17T16:52:38.097Z,46.92
2023-01-17T16:55:05.352Z,18.80
2023-01-17T16:57:32.296Z,15.05
2023-01-17T16:59:58.646Z,19.02
2023-01-17T17:02:25.035Z,27.38
2023-01-17T17:04:51.460Z,21.33
2023-01-17T17:07:17.829Z,22.80
2023-01-17T17:09:44.307Z,18.42
2023-01-17T17:12:10.715Z,22.90
2023-01-17T17:14:37.230Z,21.38
2023-01-17T17:17:03.659Z,19.55
2023-01-17T17:19:30.067Z,18.25
2023-01-17T17:21:59.763Z,17.95
2023-01-17T17:24:26.220Z,17.45
2023-01-17T17:26:52.554Z,25.17
2023-01-17T17:29:18.979Z,17.55
2023-01-17T17:31:45.389Z,15.70
2023-01-17T17:34:13.057Z,16.40
2023-01-17T17:36:39.505Z,20.38
2023-01-17T17:39:09.049Z,21.20
2023-01-17T17:41:36.326Z,26.05
2023-01-17T17:44:03.663Z,32.53
2023-01-17T17:46:30.546Z,28.25
2023-01-17T17:48:58.003Z,30.58
2023-01-17T17:51:27.406Z,30.73
2023-01-17T17:53:54.752Z,28.08
2023-01-17T17:56:21.836Z,27.23
2023-01-17T17:58:48.370Z,22.30
2023-01-17T18:01:14.945Z,19.67
2023-01-17T18:03:41.459Z,22.92
2023-01-17T18:06:09.297Z,23.25
2023-01-17T18:08:36.464Z,47.15
2023-01-17T18:11:14.923Z,25.23
2023-01-17T18:13:42.816Z,21.33
2023-01-17T18:16:10.992Z,15.20
2023-01-17T18:18:41.525Z,16.80
2023-01-17T18:21:14.889Z,17.50
2023-01-17T18:23:42.888Z,17.85
2023-01-17T18:26:16.803Z,19.15
2023-01-17T18:28:43.385Z,24.63
2023-01-17T18:31:09.915Z,26.02
2023-01-17T18:33:38.019Z,28.15
2023-01-17T18:38:38.357Z,36.50
2023-01-17T18:41:09.479Z,24.27
2023-01-17T18:43:35.887Z,27.63
2023-01-17T18:46:02.239Z,31.02
2023-01-17T18:48:28.630Z,39.22
2023-01-17T18:50:59.193Z,40.80
2023-01-17T18:53:25.835Z,41.28
2023-01-17T18:55:57.178Z,53.13
2023-01-17T18:58:24.459Z,58.75
2023-01-17T19:00:51.779Z,34.27
2023-01-17T19:03:18.940Z,25.20
2023-01-17T19:05:48.355Z,23.77
2023-01-17T19:08:15.945Z,33.58
2023-01-17T19:10:42.719Z,38.80
2023-01-17T19:13:09.529Z,53.83
2023-01-17T19:15:36.282Z,32.25
2023-01-17T19:18:03.749Z,30.00
2023-01-17T19:20:30.393Z,31.02
2023-01-17T19:22:56.812Z,53.10
2023-01-17T19:25:25.548Z,41.08
2023-01-17T19:27:52.961Z,38.92
2023-01-17T19:30:20.462Z,33.97
2023-01-17T19:32:49.295Z,31.33
2023-01-17T19:35:15.959Z,40.17
2023-01-17T19:37:46.327Z,39.47
2023-01-17T19:40:14.071Z,35.63
2023-01-17T19:42:40.693Z,40.97
2023-01-17T19:45:10.694Z,40.25
2023-01-17T19:47:37.365Z,61.40
2023-01-17T19:50:04.734Z,44.67
2023-01-17T19:52:31.116Z,42.33
2023-01-17T19:54:57.440Z,38.55
2023-01-17T19:57:24.327Z,40.97
2023-01-17T19:59:50.982Z,37.60
2023-01-17T20:02:17.448Z,37.13
2023-01-17T20:04:44.282Z,33.88
2023-01-17T20:07:10.619Z,31.85
2023-01-17T20:09:36.942Z,32.30
2023-01-17T20:12:03.353Z,31.63
2023-01-17T20:14:29.696Z,35.65
2023-01-17T20:16:56.031Z,41.75
2023-01-17T20:19:22.452Z,57.80
2023-01-17T20:21:48.786Z,36.65
2023-01-17T20:24:16.348Z,39.55
2023-01-17T20:26:44.031Z,34.90
2023-01-17T20:29:11.874Z,38.50
2023-01-17T20:31:39.401Z,49.90
2023-01-17T20:34:06.760Z,51.70
2023-01-17T20:36:33.323Z,49.80
2023-01-17T20:39:00.773Z,52.13
2023-01-17T20:41:27.122Z,54.00
2023-01-17T20:43:54.571Z,37.92
2023-01-17T20:46:22.063Z,42.35
2023-01-17T20:48:49.758Z,42.22
2023-01-17T20:51:17.105Z,62.53
2023-01-17T20:53:44.626Z,66.10
2023-01-17T20:56:12.657Z,58.50
2023-01-17T20:58:38.982Z,102.38
2023-01-17T21:01:05.982Z,65.00
2023-01-17T21:03:33.740Z,56.83
2023-01-17T21:06:04.892Z,64.60
2023-01-17T21:08:32.061Z,77.03
2023-01-17T21:10:58.619Z,62.80
2023-01-17T21:13:25.257Z,62.05
2023-01-17T21:15:52.020Z,50.85
2023-01-17T21:18:19.578Z,48.08
2023-01-17T21:20:46.677Z,64.95
2023-01-17T21:23:17.957Z,65.72
2023-01-17T21:26:04.588Z,65.97
2023-01-17T21:28:33.098Z,58.85
2023-01-17T21:30:59.678Z,64.82
2023-01-17T21:33:28.564Z,61.38
2023-01-17T21:35:55.060Z,61.95
2023-01-17T21:38:21.437Z,60.40
2023-01-17T21:40:47.838Z,53.08
2023-01-17T21:43:14.982Z,48.55
2023-01-17T21:45:41.731Z,55.07
2023-01-17T21:48:12.828Z,56.80
2023-01-17T21:50:39.393Z,51.08
2023-01-17T21:53:05.801Z,47.00
2023-01-17T21:55:50.935Z,48.63
2023-01-17T21:58:36.230Z,46.28
2023-01-17T22:01:15.729Z,52.60
2023-01-17T22:03:42.749Z,51.15
2023-01-17T22:06:10.245Z,53.20
2023-01-17T22:08:36.872Z,64.80
2023-01-17T22:11:04.307Z,71.40
2023-01-17T22:13:31.485Z,80.13
2023-01-17T22:15:58.843Z,79.97
2023-01-17T22:18:25.232Z,60.28
2023-01-17T22:20:51.573Z,53.17
2023-01-17T22:23:17.929Z,53.92
2023-01-17T22:25:44.320Z,53.92
2023-01-17T22:28:10.678Z,55.47
2023-01-17T22:30:37.314Z,58.22
2023-01-17T22:33:03.755Z,55.15
2023-01-17T22:35:30.134Z,62.20
2023-01-17T22:37:56.509Z,57.72
2023-01-17T22:40:22.892Z,54.05
2023-01-17T22:42:49.244Z,51.72
2023-01-17T22:45:17.334Z,51.30
2023-01-17T22:50:10.483Z,53.65
2023-01-17T22:52:36.859Z,54.85
2023-01-17T22:55:04.420Z,57.88
2023-01-17T22:57:30.746Z,48.30
2023-01-17T22:59:57.084Z,53.78
2023-01-17T23:02:23.474Z,50.40
2023-01-17T23:04:49.839Z,48.53
2023-01-17T23:07:16.211Z,50.05
2023-01-17T23:09:42.554Z,51.40
2023-01-17T23:12:08.885Z,48.83
2023-01-17T23:14:54.233Z,82.78
2023-01-17T23:17:40.038Z,66.10
2023-01-17T23:20:07.802Z,72.28
2023-01-17T23:22:34.567Z,74.55
2023-01-17T23:25:02.318Z,111.38
2023-01-17T23:27:51.052Z,142.00
2023-01-17T23:30:18.682Z,102.57
2023-01-17T23:32:49.256Z,64.20
2023-01-17T23:35:16.548Z,65.30
2023-01-17T23:38:01.296Z,55.10
2023-01-17T23:40:27.724Z,50.58
2023-01-17T23:43:17.268Z,47.65
2023-01-17T23:45:43.746Z,42.17
2023-01-17T23:48:10.692Z,45.10
2023-01-17T23:50:41.628Z,45.75
2023-01-17T23:53:09.305Z,47.05
2023-01-17T23:55:39.649Z,50.88
2023-01-17T23:58:07.002Z,53.30
